createdAt,value
2018-10-12T00:00:03.493Z,1004.85
2018-10-12T00:01:03.491Z,1004.86
2018-10-12T00:02:03.492Z,1004.86
2018-10-12T00:03:03.487Z,1004.86
2018-10-12T00:04:03.486Z,1004.86
2018-10-12T00:05:03.488Z,1004.90
2018-10-12T00:06:03.483Z,1004.87
2018-10-12T00:07:03.481Z,1004.90
2018-10-12T00:08:03.479Z,1004.89
2018-10-12T00:09:03.478Z,1004.90
2018-10-12T00:10:03.477Z,1004.91
2018-10-12T00:11:03.476Z,1004.91
2018-10-12T00:12:03.475Z,1004.92
2018-10-12T00:13:03.473Z,1004.87
2018-10-12T00:14:03.470Z,1004.88
2018-10-12T00:15:03.470Z,1004.84
2018-10-12T00:16:03.468Z,1004.87
2018-10-12T00:17:03.465Z,1004.87
2018-10-12T00:18:03.464Z,1004.83
2018-10-12T00:19:03.461Z,1004.88
2018-10-12T00:20:03.459Z,1004.87
2018-10-12T00:21:03.458Z,1004.86
2018-10-12T00:22:03.457Z,1004.87
2018-10-12T00:23:03.454Z,1004.89
2018-10-12T00:24:03.453Z,1004.88
2018-10-12T00:25:03.452Z,1004.92
2018-10-12T00:26:03.450Z,1004.93
2018-10-12T00:27:03.449Z,1004.91
2018-10-12T00:28:03.447Z,1004.92
2018-10-12T00:29:03.445Z,1004.94
2018-10-12T00:30:03.445Z,1004.96
2018-10-12T00:31:03.442Z,1004.95
2018-10-12T00:32:03.440Z,1004.90
2018-10-12T00:33:03.441Z,1004.92
2018-10-12T00:34:03.437Z,1004.91
2018-10-12T00:35:03.433Z,1004.91
2018-10-12T00:36:03.432Z,1004.94
2018-10-12T00:37:03.430Z,1004.91
2018-10-12T00:38:03.428Z,1004.95
2018-10-12T00:39:03.426Z,1004.92
2018-10-12T00:40:03.426Z,1004.90
2018-10-12T00:41:03.423Z,1004.90
2018-10-12T00:42:03.421Z,1004.85
2018-10-12T00:43:03.421Z,1004.86
2018-10-12T00:44:03.418Z,1004.83
2018-10-12T00:45:03.426Z,1004.81
2018-10-12T00:46:03.414Z,1004.85
2018-10-12T00:47:03.412Z,1004.83
2018-10-12T00:48:03.414Z,1004.88
2018-10-12T00:49:03.410Z,1004.85
2018-10-12T00:50:03.408Z,1004.86
2018-10-12T00:51:03.404Z,1004.87
2018-10-12T00:52:03.403Z,1004.89
2018-10-12T00:53:03.401Z,1004.93
2018-10-12T00:54:03.400Z,1004.89
2018-10-12T00:55:03.397Z,1004.91
2018-10-12T00:56:03.396Z,1004.86
2018-10-12T00:57:03.394Z,1004.83
2018-10-12T00:58:03.392Z,1004.82
2018-10-12T00:59:03.390Z,1004.78
2018-10-12T01:00:03.388Z,1004.85
2018-10-12T01:01:03.387Z,1004.87
2018-10-12T01:02:03.383Z,1004.85
2018-10-12T01:03:03.382Z,1004.82
2018-10-12T01:04:03.380Z,1004.83
2018-10-12T01:05:03.377Z,1004.78
2018-10-12T01:06:03.376Z,1004.80
2018-10-12T01:07:03.374Z,1004.78
2018-10-12T01:08:03.370Z,1004.82
2018-10-12T01:09:03.370Z,1004.82
2018-10-12T01:10:03.368Z,1004.86
2018-10-12T01:11:03.370Z,1004.87
2018-10-12T01:12:03.407Z,1004.86
2018-10-12T01:13:03.367Z,1004.84
2018-10-12T01:14:03.363Z,1004.88
2018-10-12T01:15:03.357Z,1004.89
2018-10-12T01:16:03.355Z,1004.91
2018-10-12T01:17:03.353Z,1004.96
2018-10-12T01:18:03.352Z,1004.94
2018-10-12T01:19:03.348Z,1004.93
2018-10-12T01:20:03.346Z,1004.92
2018-10-12T01:21:03.348Z,1004.88
2018-10-12T01:22:03.342Z,1004.88
2018-10-12T01:23:03.341Z,1004.86
2018-10-12T01:24:03.337Z,1004.90
2018-10-12T01:25:03.336Z,1004.87
2018-10-12T01:26:03.334Z,1004.90
2018-10-12T01:27:03.331Z,1004.91
2018-10-12T01:28:03.335Z,1004.94
2018-10-12T01:29:03.329Z,1004.95
2018-10-12T01:30:03.328Z,1004.95
2018-10-12T01:31:03.321Z,1004.95
2018-10-12T01:32:03.320Z,1004.93
2018-10-12T01:33:03.319Z,1004.98
2018-10-12T01:34:03.315Z,1004.93
2018-10-12T01:35:03.315Z,1004.94
2018-10-12T01:36:03.311Z,1004.97
2018-10-12T01:37:03.310Z,1004.98
2018-10-12T01:38:03.310Z,1005.00
2018-10-12T01:39:03.303Z,1004.97
2018-10-12T01:40:03.302Z,1004.96
2018-10-12T01:41:03.300Z,1004.95
2018-10-12T01:42:03.299Z,1004.94
2018-10-12T01:43:03.295Z,1004.95
2018-10-12T01:44:03.294Z,1004.95
2018-10-12T01:45:03.291Z,1004.95
2018-10-12T01:46:03.288Z,1004.86
2018-10-12T01:47:03.285Z,1004.90
2018-10-12T01:48:03.287Z,1004.89
2018-10-12T01:49:03.281Z,1004.89
2018-10-12T01:50:03.279Z,1004.84
2018-10-12T01:51:03.277Z,1004.81
2018-10-12T01:52:03.276Z,1004.79
2018-10-12T01:53:03.271Z,1004.83
2018-10-12T01:54:03.271Z,1004.84
2018-10-12T01:55:03.267Z,1004.82
2018-10-12T01:56:03.265Z,1004.85
2018-10-12T01:57:03.263Z,1004.89
2018-10-12T01:58:03.260Z,1004.92
2018-10-12T01:59:03.258Z,1004.93
2018-10-12T02:00:03.256Z,1004.92
2018-10-12T02:01:03.253Z,1004.91
2018-10-12T02:02:03.252Z,1004.87
2018-10-12T02:03:03.249Z,1004.90
2018-10-12T02:04:03.248Z,1004.85
2018-10-12T02:05:03.244Z,1004.82
2018-10-12T02:06:03.242Z,1004.84
2018-10-12T02:07:03.240Z,1004.81
2018-10-12T02:08:03.238Z,1004.82
2018-10-12T02:09:03.234Z,1004.83
2018-10-12T02:10:03.324Z,1004.83
2018-10-12T02:11:03.231Z,1004.80
2018-10-12T02:12:03.228Z,1004.87
2018-10-12T02:13:03.229Z,1004.86
2018-10-12T02:14:03.224Z,1004.89
2018-10-12T02:15:03.219Z,1004.90
2018-10-12T02:16:03.219Z,1004.90
2018-10-12T02:17:03.218Z,1004.87
2018-10-12T02:18:03.213Z,1004.92
2018-10-12T02:19:03.211Z,1004.91
2018-10-12T02:20:03.207Z,1004.91
2018-10-12T02:21:03.206Z,1004.92
2018-10-12T02:22:03.203Z,1004.86
2018-10-12T02:23:03.200Z,1004.87
2018-10-12T02:24:03.198Z,1004.83
2018-10-12T02:25:03.196Z,1004.84
2018-10-12T02:26:03.199Z,1004.86
2018-10-12T02:27:03.191Z,1004.88
2018-10-12T02:28:03.188Z,1004.86
2018-10-12T02:29:03.185Z,1004.85
2018-10-12T02:30:03.185Z,1004.84
2018-10-12T02:31:03.182Z,1004.82
2018-10-12T02:32:03.179Z,1004.83
2018-10-12T02:33:03.175Z,1004.85
2018-10-12T02:34:03.173Z,1004.88
2018-10-12T02:35:03.171Z,1004.89
2018-10-12T02:36:03.169Z,1005.01
2018-10-12T02:37:03.169Z,1005.05
2018-10-12T02:38:03.162Z,1005.06
2018-10-12T02:39:03.163Z,1005.06
2018-10-12T02:40:03.158Z,1005.12
2018-10-12T02:41:03.155Z,1005.13
2018-10-12T02:42:03.152Z,1005.13
2018-10-12T02:43:03.149Z,1005.12
2018-10-12T02:44:03.147Z,1005.16
2018-10-12T02:45:03.144Z,1005.25
2018-10-12T02:46:03.141Z,1005.28
2018-10-12T02:47:03.141Z,1005.24
2018-10-12T02:48:03.136Z,1005.23
2018-10-12T02:49:03.135Z,1005.30
2018-10-12T02:50:03.131Z,1005.33
2018-10-12T02:51:03.130Z,1005.28
2018-10-12T02:52:03.127Z,1005.34
2018-10-12T02:53:03.130Z,1005.30
2018-10-12T02:54:03.121Z,1005.31
2018-10-12T02:55:03.117Z,1005.33
2018-10-12T02:56:03.114Z,1005.31
2018-10-12T02:57:03.112Z,1005.37
2018-10-12T02:58:03.110Z,1005.40
2018-10-12T02:59:03.107Z,1005.40
2018-10-12T03:00:03.104Z,1005.37
2018-10-12T03:01:03.101Z,1005.39
2018-10-12T03:02:03.098Z,1005.34
2018-10-12T03:03:03.095Z,1005.37
2018-10-12T03:04:03.092Z,1005.43
2018-10-12T03:05:03.091Z,1005.44
2018-10-12T03:06:03.088Z,1005.43
2018-10-12T03:07:03.084Z,1005.47
2018-10-12T03:08:03.083Z,1005.52
2018-10-12T03:09:03.080Z,1005.53
2018-10-12T03:10:03.077Z,1005.59
2018-10-12T03:11:03.074Z,1005.54
2018-10-12T03:12:03.070Z,1005.60
2018-10-12T03:13:03.068Z,1005.59
2018-10-12T03:14:03.067Z,1005.61
2018-10-12T03:15:03.062Z,1005.65
2018-10-12T03:16:03.060Z,1005.64
2018-10-12T03:17:03.058Z,1005.65
2018-10-12T03:18:03.059Z,1005.66
2018-10-12T03:19:03.050Z,1005.67
2018-10-12T03:20:03.048Z,1005.63
2018-10-12T03:21:03.047Z,1005.61
2018-10-12T03:22:03.045Z,1005.65
2018-10-12T03:23:03.040Z,1005.66
2018-10-12T03:24:03.039Z,1005.63
2018-10-12T03:25:03.037Z,1005.63
2018-10-12T03:26:03.034Z,1005.59
2018-10-12T03:27:03.029Z,1005.64
2018-10-12T03:28:03.026Z,1005.66
2018-10-12T03:29:03.025Z,1005.68
2018-10-12T03:30:03.021Z,1005.69
2018-10-12T03:31:03.018Z,1005.66
2018-10-12T03:32:03.015Z,1005.64
2018-10-12T03:33:03.013Z,1005.64
2018-10-12T03:34:03.011Z,1005.68
2018-10-12T03:35:03.006Z,1005.72
2018-10-12T03:36:03.006Z,1005.68
2018-10-12T03:37:03.044Z,1005.72
2018-10-12T03:38:03.000Z,1005.73
2018-10-12T03:39:02.997Z,1005.70
2018-10-12T03:40:02.992Z,1005.69
2018-10-12T03:41:02.995Z,1005.71
2018-10-12T03:42:02.988Z,1005.73
2018-10-12T03:43:02.989Z,1005.70
2018-10-12T03:44:02.981Z,1005.75
2018-10-12T03:45:02.980Z,1005.75
2018-10-12T03:46:02.975Z,1005.79
2018-10-12T03:47:02.974Z,1005.81
2018-10-12T03:48:02.971Z,1005.86
2018-10-12T03:49:02.968Z,1005.92
2018-10-12T03:50:02.965Z,1005.93
2018-10-12T03:51:02.961Z,1005.94
2018-10-12T03:52:02.967Z,1005.94
2018-10-12T03:53:02.956Z,1005.93
2018-10-12T03:54:02.953Z,1005.94
2018-10-12T03:55:02.952Z,1005.94
2018-10-12T03:56:02.948Z,1005.92
2018-10-12T03:57:02.945Z,1005.93
2018-10-12T03:58:02.942Z,1005.97
2018-10-12T03:59:02.939Z,1006.03
2018-10-12T04:00:02.937Z,1006.06
2018-10-12T04:01:02.933Z,1006.09
2018-10-12T04:02:02.931Z,1006.10
2018-10-12T04:03:02.927Z,1006.11
2018-10-12T04:04:02.926Z,1006.10
2018-10-12T04:05:02.923Z,1006.13
2018-10-12T04:06:02.919Z,1006.10
2018-10-12T04:07:02.915Z,1006.09
2018-10-12T04:08:02.912Z,1006.12
2018-10-12T04:09:02.910Z,1006.15
2018-10-12T04:10:02.907Z,1006.23
2018-10-12T04:11:02.903Z,1006.24
2018-10-12T04:12:02.905Z,1006.29
2018-10-12T04:13:02.899Z,1006.38
2018-10-12T04:14:02.896Z,1006.44
2018-10-12T04:15:02.892Z,1006.39
2018-10-12T04:16:02.889Z,1006.41
2018-10-12T04:17:02.886Z,1006.41
2018-10-12T04:18:02.885Z,1006.42
2018-10-12T04:19:02.880Z,1006.45
2018-10-12T04:20:02.877Z,1006.45
2018-10-12T04:21:02.874Z,1006.45
2018-10-12T04:22:02.873Z,1006.47
2018-10-12T04:23:02.868Z,1006.43
2018-10-12T04:24:02.867Z,1006.44
2018-10-12T04:25:02.863Z,1006.45
2018-10-12T04:26:02.859Z,1006.48
2018-10-12T04:27:02.856Z,1006.51
2018-10-12T04:28:02.855Z,1006.50
2018-10-12T04:29:02.866Z,1006.49
2018-10-12T04:30:02.850Z,1006.48
2018-10-12T04:31:02.845Z,1006.47
2018-10-12T04:32:02.843Z,1006.50
2018-10-12T04:33:02.840Z,1006.50
2018-10-12T04:34:02.869Z,1006.52
2018-10-12T04:35:02.835Z,1006.52
2018-10-12T04:36:02.830Z,1006.54
2018-10-12T04:37:02.827Z,1006.55
2018-10-12T04:38:02.824Z,1006.58
2018-10-12T04:39:02.820Z,1006.62
2018-10-12T04:40:02.818Z,1006.59
2018-10-12T04:41:02.816Z,1006.64
2018-10-12T04:42:02.811Z,1006.61
2018-10-12T04:43:02.808Z,1006.58
2018-10-12T04:44:02.806Z,1006.58
2018-10-12T04:45:02.802Z,1006.59
2018-10-12T04:46:02.801Z,1006.58
2018-10-12T04:47:02.802Z,1006.57
2018-10-12T04:48:02.793Z,1006.59
2018-10-12T04:49:02.790Z,1006.55
2018-10-12T04:50:02.787Z,1006.52
2018-10-12T04:51:02.786Z,1006.55
2018-10-12T04:52:02.780Z,1006.57
2018-10-12T04:53:02.801Z,1006.63
2018-10-12T04:54:02.774Z,1006.64
2018-10-12T04:55:02.770Z,1006.72
2018-10-12T04:56:02.775Z,1006.66
2018-10-12T04:57:02.764Z,1006.74
2018-10-12T04:58:02.763Z,1006.74
2018-10-12T04:59:02.759Z,1006.73
2018-10-12T05:00:02.759Z,1006.71
2018-10-12T05:01:02.816Z,1006.71
2018-10-12T05:02:02.751Z,1006.74
2018-10-12T05:03:02.745Z,1006.71
2018-10-12T05:04:02.743Z,1006.73
2018-10-12T05:05:02.740Z,1006.73
2018-10-12T05:06:02.737Z,1006.74
2018-10-12T05:07:02.733Z,1006.76
2018-10-12T05:08:02.729Z,1006.77
2018-10-12T05:09:02.726Z,1006.78
2018-10-12T05:10:02.725Z,1006.80
2018-10-12T05:11:02.720Z,1006.83
2018-10-12T05:12:02.716Z,1006.84
2018-10-12T05:13:02.714Z,1006.89
2018-10-12T05:14:02.712Z,1006.89
2018-10-12T05:15:02.708Z,1006.91
2018-10-12T05:16:02.705Z,1006.93
2018-10-12T05:17:02.700Z,1006.92
2018-10-12T05:18:02.697Z,1006.95
2018-10-12T05:19:02.697Z,1006.94
2018-10-12T05:20:02.694Z,1006.94
2018-10-12T05:21:02.688Z,1006.97
2018-10-12T05:22:02.728Z,1006.99
2018-10-12T05:23:02.682Z,1007.02
2018-10-12T05:24:02.680Z,1007.05
2018-10-12T05:25:02.678Z,1007.12
2018-10-12T05:26:02.676Z,1007.14
2018-10-12T05:27:02.668Z,1007.18
2018-10-12T05:28:02.667Z,1007.21
2018-10-12T05:29:02.678Z,1007.29
2018-10-12T05:30:02.721Z,1007.27
2018-10-12T05:31:02.658Z,1007.28
2018-10-12T05:32:02.653Z,1007.30
2018-10-12T05:33:02.650Z,1007.28
2018-10-12T05:34:02.649Z,1007.31
2018-10-12T05:35:02.643Z,1007.33
2018-10-12T05:36:02.688Z,1007.36
2018-10-12T05:37:02.638Z,1007.39
2018-10-12T05:38:02.634Z,1007.40
2018-10-12T05:39:02.632Z,1007.40
2018-10-12T05:40:02.629Z,1007.46
2018-10-12T05:41:02.627Z,1007.49
2018-10-12T05:42:02.622Z,1007.47
2018-10-12T05:43:02.631Z,1007.45
2018-10-12T05:44:02.616Z,1007.46
2018-10-12T05:45:02.614Z,1007.49
2018-10-12T05:46:02.610Z,1007.52
2018-10-12T05:47:02.608Z,1007.51
2018-10-12T05:48:02.605Z,1007.54
2018-10-12T05:49:02.603Z,1007.54
2018-10-12T05:50:02.597Z,1007.58
2018-10-12T05:51:02.594Z,1007.64
2018-10-12T05:52:02.592Z,1007.64
2018-10-12T05:53:02.590Z,1007.67
2018-10-12T05:54:02.586Z,1007.64
2018-10-12T05:55:02.583Z,1007.70
2018-10-12T05:56:02.579Z,1007.76
2018-10-12T05:57:02.578Z,1007.80
2018-10-12T05:58:02.577Z,1007.81
2018-10-12T05:59:02.569Z,1007.82
2018-10-12T06:00:02.567Z,1007.81
2018-10-12T06:01:02.564Z,1007.83
2018-10-12T06:02:02.566Z,1007.82
2018-10-12T06:03:02.557Z,1007.83
2018-10-12T06:04:02.554Z,1007.85
2018-10-12T06:05:02.557Z,1007.84
2018-10-12T06:06:02.550Z,1007.85
2018-10-12T06:07:02.547Z,1007.90
2018-10-12T06:08:02.543Z,1007.89
2018-10-12T06:09:02.540Z,1007.89
2018-10-12T06:10:02.616Z,1007.89
2018-10-12T06:11:02.534Z,1007.92
2018-10-12T06:12:02.531Z,1007.94
2018-10-12T06:13:02.527Z,1007.97
2018-10-12T06:14:02.525Z,1007.95
2018-10-12T06:15:02.521Z,1007.98
2018-10-12T06:16:02.577Z,1007.99
2018-10-12T06:17:02.515Z,1008.00
2018-10-12T06:18:02.513Z,1008.00
2018-10-12T06:19:02.509Z,1008.02
2018-10-12T06:20:02.506Z,1008.04
2018-10-12T06:21:02.503Z,1008.08
2018-10-12T06:22:02.501Z,1008.05
2018-10-12T06:23:02.496Z,1008.10
2018-10-12T06:24:02.498Z,1008.09
2018-10-12T06:25:02.492Z,1008.08
2018-10-12T06:26:02.491Z,1008.08
2018-10-12T06:27:02.484Z,1008.09
2018-10-12T06:28:02.482Z,1008.15
2018-10-12T06:29:02.480Z,1008.15
2018-10-12T06:30:02.477Z,1008.16
2018-10-12T06:31:02.472Z,1008.20
2018-10-12T06:32:02.471Z,1008.21
2018-10-12T06:33:02.548Z,1008.25
2018-10-12T06:34:02.465Z,1008.24
2018-10-12T06:35:02.461Z,1008.29
2018-10-12T06:36:02.461Z,1008.29
2018-10-12T06:37:02.454Z,1008.28
2018-10-12T06:38:02.453Z,1008.27
2018-10-12T06:39:02.449Z,1008.30
2018-10-12T06:40:02.446Z,1008.35
2018-10-12T06:41:02.526Z,1008.30
2018-10-12T06:42:02.442Z,1008.30
2018-10-12T06:43:02.440Z,1008.34
2018-10-12T06:44:02.434Z,1008.40
2018-10-12T06:45:02.431Z,1008.39
2018-10-12T06:46:02.428Z,1008.40
2018-10-12T06:47:02.425Z,1008.42
2018-10-12T06:48:02.422Z,1008.44
2018-10-12T06:49:02.421Z,1008.49
2018-10-12T06:50:02.417Z,1008.56
2018-10-12T06:51:02.414Z,1008.58
2018-10-12T06:52:02.411Z,1008.59
2018-10-12T06:53:02.408Z,1008.62
2018-10-12T06:54:02.477Z,1008.62
2018-10-12T06:55:02.403Z,1008.63
2018-10-12T06:56:02.400Z,1008.63
2018-10-12T06:57:02.397Z,1008.63
2018-10-12T06:58:02.404Z,1008.63
2018-10-12T06:59:02.392Z,1008.64
2018-10-12T07:00:02.496Z,1008.68
2018-10-12T07:01:02.386Z,1008.66
2018-10-12T07:02:02.385Z,1008.69
2018-10-12T07:03:02.379Z,1008.67
2018-10-12T07:04:02.379Z,1008.71
2018-10-12T07:05:02.374Z,1008.68
2018-10-12T07:06:02.371Z,1008.71
2018-10-12T07:07:02.368Z,1008.72
2018-10-12T07:08:02.364Z,1008.76
2018-10-12T07:09:02.362Z,1008.76
2018-10-12T07:10:02.361Z,1008.77
2018-10-12T07:11:02.359Z,1008.81
2018-10-12T07:12:02.354Z,1008.84
2018-10-12T07:13:02.355Z,1008.82
2018-10-12T07:14:02.351Z,1008.82
2018-10-12T07:15:02.345Z,1008.83
2018-10-12T07:16:02.347Z,1008.82
2018-10-12T07:17:02.341Z,1008.84
2018-10-12T07:18:02.340Z,1008.85
2018-10-12T07:19:02.337Z,1008.87
2018-10-12T07:20:02.334Z,1008.89
2018-10-12T07:21:02.335Z,1008.95
2018-10-12T07:22:02.331Z,1008.94
2018-10-12T07:23:02.328Z,1009.01
2018-10-12T07:24:02.323Z,1009.01
2018-10-12T07:25:02.326Z,1008.97
2018-10-12T07:26:02.403Z,1009.01
2018-10-12T07:27:02.318Z,1009.01
2018-10-12T07:28:02.316Z,1009.06
2018-10-12T07:29:02.313Z,1009.06
2018-10-12T07:30:02.310Z,1009.09
2018-10-12T07:31:02.307Z,1009.10
2018-10-12T07:32:02.306Z,1009.08
2018-10-12T07:33:02.305Z,1009.08
2018-10-12T07:34:02.303Z,1009.12
2018-10-12T07:35:02.298Z,1009.11
2018-10-12T07:36:02.296Z,1009.12
2018-10-12T07:37:02.327Z,1009.13
2018-10-12T07:38:02.293Z,1009.12
2018-10-12T07:39:02.294Z,1009.11
2018-10-12T07:40:02.289Z,1009.15
2018-10-12T07:41:02.290Z,1009.16
2018-10-12T07:42:02.285Z,1009.16
2018-10-12T07:43:02.284Z,1009.18
2018-10-12T07:44:02.282Z,1009.18
2018-10-12T07:45:02.280Z,1009.16
2018-10-12T07:46:02.279Z,1009.22
2018-10-12T07:47:02.276Z,1009.16
2018-10-12T07:48:02.306Z,1009.20
2018-10-12T07:49:02.272Z,1009.26
2018-10-12T07:50:02.275Z,1009.30
2018-10-12T07:51:02.268Z,1009.34
2018-10-12T07:52:02.268Z,1009.40
2018-10-12T07:53:02.271Z,1009.43
2018-10-12T07:54:02.265Z,1009.44
2018-10-12T07:55:02.262Z,1009.42
2018-10-12T07:56:02.262Z,1009.48
2018-10-12T07:57:02.261Z,1009.45
2018-10-12T07:58:02.259Z,1009.48
2018-10-12T07:59:02.256Z,1009.48
2018-10-12T08:00:02.280Z,1009.53
2018-10-12T08:01:02.255Z,1009.48
2018-10-12T08:02:02.256Z,1009.51
2018-10-12T08:03:02.251Z,1009.56
2018-10-12T08:04:02.252Z,1009.55
2018-10-12T08:05:02.249Z,1009.52
2018-10-12T08:06:02.253Z,1009.56
2018-10-12T08:07:02.247Z,1009.57
2018-10-12T08:08:02.246Z,1009.58
2018-10-12T08:09:02.245Z,1009.59
2018-10-12T08:10:02.247Z,1009.59
2018-10-12T08:11:02.245Z,1009.63
2018-10-12T08:12:02.243Z,1009.60
2018-10-12T08:13:02.243Z,1009.60
2018-10-12T08:14:02.266Z,1009.62
2018-10-12T08:15:02.241Z,1009.58
2018-10-12T08:16:02.240Z,1009.57
2018-10-12T08:17:02.239Z,1009.58
2018-10-12T08:18:02.244Z,1009.59
2018-10-12T08:19:02.242Z,1009.60
2018-10-12T08:20:02.239Z,1009.53
2018-10-12T08:21:02.240Z,1009.57
2018-10-12T08:22:02.237Z,1009.58
2018-10-12T08:23:02.239Z,1009.62
2018-10-12T08:24:02.235Z,1009.65
2018-10-12T08:25:02.234Z,1009.61
2018-10-12T08:26:02.236Z,1009.65
2018-10-12T08:27:02.294Z,1009.68
2018-10-12T08:28:02.234Z,1009.72
2018-10-12T08:29:02.235Z,1009.67
2018-10-12T08:30:02.237Z,1009.71
2018-10-12T08:31:02.233Z,1009.68
2018-10-12T08:32:02.234Z,1009.71
2018-10-12T08:33:02.252Z,1009.71
2018-10-12T08:34:02.234Z,1009.72
2018-10-12T08:35:02.235Z,1009.77
2018-10-12T08:36:02.232Z,1009.79
2018-10-12T08:37:02.233Z,1009.77
2018-10-12T08:38:02.233Z,1009.85
2018-10-12T08:39:02.233Z,1009.86
2018-10-12T08:40:02.232Z,1009.86
2018-10-12T08:41:02.237Z,1009.86
2018-10-12T08:42:02.236Z,1009.87
2018-10-12T08:43:02.232Z,1009.89
2018-10-12T08:44:02.236Z,1009.95
2018-10-12T08:45:02.234Z,1009.98
2018-10-12T08:46:02.240Z,1009.95
2018-10-12T08:47:02.235Z,1009.94
2018-10-12T08:48:02.234Z,1009.94
2018-10-12T08:49:02.242Z,1009.96
2018-10-12T08:50:02.237Z,1009.99
2018-10-12T08:51:02.237Z,1009.96
2018-10-12T08:52:02.237Z,1009.98
2018-10-12T08:53:02.239Z,1009.94
2018-10-12T08:54:02.238Z,1010.01
2018-10-12T08:55:02.238Z,1010.02
2018-10-12T08:56:02.244Z,1010.07
2018-10-12T08:57:02.241Z,1010.01
2018-10-12T08:58:02.240Z,1010.07
2018-10-12T08:59:02.242Z,1010.05
2018-10-12T09:00:02.242Z,1010.05
2018-10-12T09:01:02.244Z,1010.10
2018-10-12T09:02:02.243Z,1010.04
2018-10-12T09:03:02.307Z,1010.15
2018-10-12T09:04:02.245Z,1010.10
2018-10-12T09:05:02.248Z,1010.10
2018-10-12T09:06:02.247Z,1010.10
2018-10-12T09:07:02.251Z,1010.10
2018-10-12T09:08:02.298Z,1010.13
2018-10-12T09:09:02.255Z,1010.08
2018-10-12T09:10:02.251Z,1010.11
2018-10-12T09:11:02.251Z,1010.12
2018-10-12T09:12:02.255Z,1010.12
2018-10-12T09:13:02.261Z,1010.13
2018-10-12T09:14:02.255Z,1010.14
2018-10-12T09:15:02.259Z,1010.13
2018-10-12T09:16:02.258Z,1010.15
2018-10-12T09:17:02.259Z,1010.36
2018-10-12T09:18:02.262Z,1010.76
2018-10-12T09:19:02.264Z,1010.87
2018-10-12T09:20:02.269Z,1010.97
2018-10-12T09:21:02.265Z,1010.90
2018-10-12T09:22:02.269Z,1010.94
2018-10-12T09:23:02.271Z,1010.93
2018-10-12T09:24:02.275Z,1011.01
2018-10-12T09:25:02.280Z,1011.06
2018-10-12T09:26:02.283Z,1011.07
2018-10-12T09:27:02.287Z,1011.06
2018-10-12T09:28:02.293Z,1011.06
2018-10-12T09:29:02.297Z,1011.11
2018-10-12T09:30:02.304Z,1011.11
2018-10-12T09:31:02.308Z,1011.08
2018-10-12T09:32:02.315Z,1011.18
2018-10-12T09:33:02.320Z,1011.19
2018-10-12T09:34:02.328Z,1011.14
2018-10-12T09:35:02.335Z,1011.11
2018-10-12T09:36:02.343Z,1011.18
2018-10-12T09:37:02.446Z,1011.12
2018-10-12T09:38:02.358Z,1011.14
2018-10-12T09:39:02.364Z,1011.17
2018-10-12T09:40:02.375Z,1011.20
2018-10-12T09:41:02.383Z,1011.17
2018-10-12T09:42:02.392Z,1011.20
2018-10-12T09:43:02.399Z,1011.27
2018-10-12T09:44:02.415Z,1011.21
2018-10-12T09:45:02.419Z,1011.20
2018-10-12T09:46:02.426Z,1011.19
2018-10-12T09:47:02.437Z,1011.19
2018-10-12T09:48:02.445Z,1011.02
2018-10-12T09:49:02.454Z,1011.03
2018-10-12T09:50:02.465Z,1011.06
2018-10-12T09:51:02.475Z,1011.11
2018-10-12T09:52:02.484Z,1010.92
2018-10-12T09:53:02.494Z,1011.16
2018-10-12T09:54:02.506Z,1011.12
2018-10-12T09:55:02.514Z,1011.07
2018-10-12T09:56:02.561Z,1011.07
2018-10-12T09:57:02.538Z,1011.10
2018-10-12T09:58:02.545Z,1011.13
2018-10-12T09:59:02.553Z,1011.06
2018-10-12T10:00:02.564Z,1011.18
2018-10-12T10:01:02.574Z,1011.07
2018-10-12T10:02:02.618Z,1011.10
2018-10-12T10:03:02.597Z,1011.09
2018-10-12T10:04:02.605Z,1011.16
2018-10-12T10:05:02.616Z,1011.15
2018-10-12T10:06:02.627Z,1011.22
2018-10-12T10:07:02.636Z,1011.25
2018-10-12T10:08:02.822Z,1011.24
2018-10-12T10:09:02.729Z,1011.25
2018-10-12T10:10:02.667Z,1011.25
2018-10-12T10:11:02.680Z,1011.20
2018-10-12T10:12:02.690Z,1011.11
2018-10-12T10:13:02.697Z,1010.44
2018-10-12T10:14:02.709Z,1010.41
2018-10-12T10:15:02.719Z,1010.43
2018-10-12T10:16:02.729Z,1010.57
2018-10-12T10:17:02.740Z,1010.51
2018-10-12T10:18:02.751Z,1010.48
2018-10-12T10:19:02.762Z,1010.53
2018-10-12T10:20:02.770Z,1010.53
2018-10-12T10:21:02.779Z,1010.50
2018-10-12T10:22:02.791Z,1010.50
2018-10-12T10:23:02.797Z,1010.39
2018-10-12T10:24:02.807Z,1010.40
2018-10-12T10:25:02.895Z,1010.48
2018-10-12T10:26:02.826Z,1010.37
2018-10-12T10:27:02.832Z,1010.43
2018-10-12T10:28:02.841Z,1010.30
2018-10-12T10:29:02.895Z,1010.22
2018-10-12T10:30:02.856Z,1010.17
2018-10-12T10:31:02.862Z,1010.13
2018-10-12T10:32:02.922Z,1010.11
2018-10-12T10:33:02.879Z,1010.07
2018-10-12T10:34:02.887Z,1010.08
2018-10-12T10:35:02.895Z,1010.08
2018-10-12T10:36:02.901Z,1010.07
2018-10-12T10:37:02.908Z,1010.06
2018-10-12T10:38:02.915Z,1010.07
2018-10-12T10:39:02.985Z,1010.03
2018-10-12T10:40:02.927Z,1009.94
2018-10-12T10:41:02.934Z,1009.96
2018-10-12T10:42:02.940Z,1009.98
2018-10-12T10:43:02.945Z,1009.99
2018-10-12T10:44:02.952Z,1009.97
2018-10-12T10:45:02.958Z,1010.06
2018-10-12T10:46:02.964Z,1010.07
2018-10-12T10:47:02.969Z,1010.09
2018-10-12T10:48:02.974Z,1010.02
2018-10-12T10:49:02.985Z,1010.05
2018-10-12T10:50:02.987Z,1010.10
2018-10-12T10:51:02.994Z,1010.06
2018-10-12T10:52:02.998Z,1010.03
2018-10-12T10:53:03.005Z,1010.04
2018-10-12T10:54:03.012Z,1010.06
2018-10-12T10:55:03.015Z,1010.06
2018-10-12T10:56:03.022Z,1010.08
2018-10-12T10:57:03.028Z,1010.15
2018-10-12T10:58:03.033Z,1010.02
2018-10-12T10:59:03.037Z,1009.90
2018-10-12T11:00:03.046Z,1010.00
2018-10-12T11:01:03.094Z,1010.03
2018-10-12T11:02:03.056Z,1009.91
2018-10-12T11:03:03.059Z,1009.91
2018-10-12T11:04:03.068Z,1010.00
2018-10-12T11:05:03.072Z,1010.05
2018-10-12T11:06:03.076Z,1009.96
2018-10-12T11:07:03.082Z,1010.00
2018-10-12T11:08:03.087Z,1010.01
2018-10-12T11:09:03.092Z,1009.99
2018-10-12T11:10:03.099Z,1009.99
2018-10-12T11:11:03.104Z,1010.02
2018-10-12T11:12:03.112Z,1010.00
2018-10-12T11:13:03.234Z,1010.03
2018-10-12T11:14:03.122Z,1009.97
2018-10-12T11:15:03.124Z,1009.95
2018-10-12T11:16:03.130Z,1009.99
2018-10-12T11:17:03.135Z,1009.93
2018-10-12T11:18:03.142Z,1009.91
2018-10-12T11:19:03.145Z,1009.91
2018-10-12T11:20:03.152Z,1009.94
2018-10-12T11:21:03.156Z,1009.95
2018-10-12T11:22:03.161Z,1009.92
2018-10-12T11:23:03.166Z,1009.96
2018-10-12T11:24:03.173Z,1009.83
2018-10-12T11:25:03.177Z,1009.80
2018-10-12T11:26:03.183Z,1009.88
2018-10-12T11:27:03.187Z,1009.85
2018-10-12T11:28:03.192Z,1009.87
2018-10-12T11:29:03.198Z,1009.91
2018-10-12T11:30:03.203Z,1009.95
2018-10-12T11:31:03.209Z,1009.88
2018-10-12T11:32:03.214Z,1009.84
2018-10-12T11:33:03.237Z,1009.86
2018-10-12T11:34:03.229Z,1009.93
2018-10-12T11:35:03.232Z,1009.86
2018-10-12T11:36:03.234Z,1009.90
2018-10-12T11:37:03.241Z,1009.88
2018-10-12T11:38:03.246Z,1009.90
2018-10-12T11:39:03.250Z,1009.85
2018-10-12T11:40:03.254Z,1009.86
2018-10-12T11:41:03.261Z,1009.86
2018-10-12T11:42:03.264Z,1009.85
2018-10-12T11:43:03.270Z,1009.86
2018-10-12T11:44:03.275Z,1009.86
2018-10-12T11:45:03.347Z,1009.86
2018-10-12T11:46:03.285Z,1009.87
2018-10-12T11:47:03.288Z,1009.88
2018-10-12T11:48:03.295Z,1009.88
2018-10-12T11:49:03.307Z,1009.85
2018-10-12T11:50:03.305Z,1009.87
2018-10-12T11:51:03.309Z,1009.90
2018-10-12T11:52:03.336Z,1009.86
2018-10-12T11:53:03.319Z,1009.90
2018-10-12T11:54:03.324Z,1009.90
2018-10-12T11:55:03.329Z,1009.84
2018-10-12T11:56:03.332Z,1009.82
2018-10-12T11:57:03.340Z,1009.86
2018-10-12T11:58:03.345Z,1009.84
2018-10-12T11:59:03.347Z,1009.84
2018-10-12T12:00:03.355Z,1009.87
2018-10-12T12:01:03.386Z,1009.88
2018-10-12T12:02:03.420Z,1009.91
2018-10-12T12:03:03.871Z,1009.92
2018-10-12T12:04:03.372Z,1009.81
2018-10-12T12:05:03.379Z,1009.82